createdAt,value
2022-11-13T00:02:55.608Z,3.71
2022-11-13T00:08:19.388Z,3.62
2022-11-13T00:13:49.012Z,3.49
2022-11-13T00:19:12.504Z,3.51
2022-11-13T00:24:37.166Z,3.39
2022-11-13T00:30:04.022Z,3.56
2022-11-13T00:35:29.526Z,3.49
2022-11-13T00:40:54.494Z,3.45
2022-11-13T00:46:23.650Z,3.48
2022-11-13T00:51:47.367Z,3.54
2022-11-13T00:57:10.857Z,3.82
2022-11-13T01:02:37.043Z,3.67
2022-11-13T01:08:00.316Z,3.59
2022-11-13T01:13:26.509Z,3.84
2022-11-13T01:18:53.498Z,3.58
2022-11-13T01:24:17.310Z,3.56
2022-11-13T01:29:43.551Z,3.58
2022-11-13T01:35:12.659Z,3.36
2022-11-13T01:40:36.441Z,3.47
2022-11-13T01:46:21.949Z,3.38
2022-11-13T01:51:53.667Z,3.40
2022-11-13T01:57:18.928Z,3.30
2022-11-13T02:02:44.533Z,3.32
2022-11-13T02:08:13.294Z,3.48
2022-11-13T02:13:38.021Z,3.66
2022-11-13T02:19:02.325Z,3.21
2022-11-13T02:24:35.837Z,3.31
2022-11-13T02:30:01.606Z,3.25
2022-11-13T02:35:30.584Z,3.23
2022-11-13T02:40:56.619Z,3.21
2022-11-13T02:46:20.487Z,3.27
2022-11-13T02:51:46.331Z,3.37
2022-11-13T02:57:12.559Z,3.28
2022-11-13T03:02:36.293Z,3.37
2022-11-13T03:07:59.742Z,3.29
2022-11-13T03:13:26.536Z,3.35
2022-11-13T03:18:50.195Z,3.28
2022-11-13T03:24:14.271Z,3.13
2022-11-13T03:29:41.046Z,3.19
2022-11-13T03:35:04.304Z,3.34
2022-11-13T03:40:28.155Z,3.21
2022-11-13T03:45:54.823Z,3.10
2022-11-13T03:51:20.198Z,3.19
2022-11-13T03:56:44.141Z,3.09
2022-11-13T04:02:10.291Z,3.19
2022-11-13T04:07:34.089Z,3.47
2022-11-13T04:12:57.766Z,3.38
2022-11-13T04:18:23.830Z,3.06
2022-11-13T04:23:47.510Z,2.93
2022-11-13T04:29:11.527Z,2.60
2022-11-13T04:34:46.166Z,2.62
2022-11-13T04:40:11.912Z,2.62
2022-11-13T04:45:35.372Z,2.58
2022-11-13T04:51:02.652Z,2.62
2022-11-13T04:56:26.738Z,2.58
2022-11-13T05:01:50.722Z,2.54
2022-11-13T05:07:17.195Z,2.48
2022-11-13T05:12:41.008Z,2.42
2022-11-13T05:18:06.964Z,2.37
2022-11-13T05:23:34.203Z,2.38
2022-11-13T05:29:00.172Z,2.23
2022-11-13T05:34:24.879Z,2.21
2022-11-13T05:39:51.498Z,2.10
2022-11-13T05:45:15.510Z,2.24
2022-11-13T05:50:38.936Z,2.11
2022-11-13T05:56:07.467Z,2.11
2022-11-13T06:01:33.319Z,2.09
2022-11-13T06:06:56.917Z,2.07
2022-11-13T06:12:22.929Z,2.00
2022-11-13T06:17:49.159Z,2.10
2022-11-13T06:23:13.201Z,2.18
2022-11-13T06:28:39.934Z,2.08
2022-11-13T06:34:07.772Z,2.13
2022-11-13T06:39:33.881Z,2.14
2022-11-13T06:45:00.195Z,2.13
2022-11-13T06:50:23.729Z,2.17
2022-11-13T06:55:47.830Z,2.38
2022-11-13T07:01:16.394Z,2.42
2022-11-13T07:06:49.519Z,2.44
2022-11-13T07:12:13.551Z,2.44
2022-11-13T07:17:41.363Z,2.63
2022-11-13T07:23:06.553Z,2.69
2022-11-13T07:28:30.701Z,2.79
2022-11-13T07:33:57.235Z,2.85
2022-11-13T07:39:20.858Z,2.96
2022-11-13T07:44:59.913Z,3.08
2022-11-13T07:50:26.366Z,3.32
2022-11-13T07:55:50.215Z,3.47
2022-11-13T08:01:16.893Z,3.55
2022-11-13T08:06:43.755Z,3.78
2022-11-13T08:12:07.766Z,3.83
2022-11-13T08:17:31.215Z,4.08
2022-11-13T08:23:00.098Z,4.16
2022-11-13T08:28:23.664Z,4.30
2022-11-13T08:33:47.093Z,4.36
2022-11-13T08:39:15.674Z,4.50
2022-11-13T08:44:39.270Z,4.74
2022-11-13T08:50:02.946Z,5.11
2022-11-13T08:55:30.041Z,5.28
2022-11-13T09:00:53.744Z,5.46
2022-11-13T09:06:18.120Z,5.71
2022-11-13T09:11:44.571Z,5.81
2022-11-13T09:17:08.224Z,5.95
2022-11-13T09:22:31.650Z,6.35
2022-11-13T09:28:00.136Z,6.65
2022-11-13T09:33:23.901Z,6.78
2022-11-13T09:38:50.230Z,7.46
2022-11-13T09:44:33.462Z,8.59
2022-11-13T09:50:03.872Z,7.69
2022-11-13T09:55:31.727Z,8.60
2022-11-13T10:00:58.727Z,8.77
2022-11-13T10:06:30.154Z,8.58
2022-11-13T10:11:58.240Z,8.19
2022-11-13T10:17:28.152Z,8.12
2022-11-13T10:22:54.209Z,8.15
2022-11-13T10:34:13.947Z,8.26
2022-11-13T10:39:44.911Z,8.42
2022-11-13T10:45:18.841Z,8.74
2022-11-13T10:50:45.729Z,8.72
2022-11-13T10:56:17.194Z,9.09
2022-11-13T11:01:41.493Z,9.64
2022-11-13T11:07:20.666Z,9.64
2022-11-13T11:12:45.048Z,9.86
2022-11-13T11:18:20.470Z,9.82
2022-11-13T11:23:55.962Z,9.76
2022-11-13T11:29:24.781Z,10.15
2022-11-13T11:34:58.838Z,9.65
2022-11-13T11:40:33.797Z,9.14
2022-11-13T11:45:57.685Z,9.46
2022-11-13T11:51:28.199Z,8.87
2022-11-13T11:56:58.247Z,8.75
2022-11-13T12:02:50.205Z,8.93
2022-11-13T12:08:22.857Z,9.54
2022-11-13T12:13:56.203Z,9.54
2022-11-13T12:19:29.743Z,9.57
2022-11-13T12:25:05.757Z,9.80
2022-11-13T12:30:41.894Z,9.10
2022-11-13T12:36:07.610Z,9.47
2022-11-13T12:41:35.994Z,9.94
2022-11-13T12:47:04.776Z,10.09
2022-11-13T12:52:30.014Z,9.62
2022-11-13T12:57:53.696Z,9.34
2022-11-13T13:03:48.005Z,9.16
2022-11-13T13:09:27.536Z,9.36
2022-11-13T13:15:15.371Z,9.85
2022-11-13T13:20:44.739Z,9.74
2022-11-13T13:26:19.107Z,8.73
2022-11-13T13:31:53.412Z,9.24
2022-11-13T13:37:28.717Z,9.67
2022-11-13T13:43:06.572Z,9.45
2022-11-13T13:48:33.234Z,9.06
2022-11-13T13:54:04.287Z,8.94
2022-11-13T13:59:33.304Z,8.86
2022-11-13T14:05:00.143Z,8.73
2022-11-13T14:10:30.892Z,8.80
2022-11-13T14:16:05.004Z,8.36
2022-11-13T14:21:28.538Z,8.39
2022-11-13T14:26:59.608Z,8.34
2022-11-13T14:32:26.755Z,8.15
2022-11-13T14:37:51.389Z,7.91
2022-11-13T14:43:24.712Z,7.94
2022-11-13T14:49:02.107Z,7.78
2022-11-13T14:55:00.204Z,7.65
2022-11-13T15:00:29.841Z,7.47
2022-11-13T15:05:53.798Z,7.45
2022-11-13T15:11:18.825Z,7.39
2022-11-13T15:16:46.518Z,7.20
2022-11-13T15:22:26.438Z,7.13
2022-11-13T15:27:51.407Z,7.01
2022-11-13T15:33:19.862Z,6.94
2022-11-13T15:38:43.344Z,7.00
2022-11-13T15:44:13.484Z,7.03
2022-11-13T15:49:46.931Z,7.12
2022-11-13T15:55:27.364Z,7.16
2022-11-13T16:00:51.220Z,7.22
2022-11-13T16:06:20.907Z,7.22
2022-11-13T16:11:49.267Z,7.19
2022-11-13T16:17:20.168Z,7.02
2022-11-13T16:22:47.133Z,7.00
2022-11-13T16:28:18.193Z,6.98
2022-11-13T16:33:41.752Z,6.98
2022-11-13T16:39:08.543Z,6.94
2022-11-13T16:44:32.206Z,6.90
2022-11-13T16:49:57.166Z,6.93
2022-11-13T16:55:25.500Z,6.88
2022-11-13T17:00:53.056Z,6.85
2022-11-13T17:06:24.530Z,6.83
2022-11-13T17:11:50.386Z,6.77
2022-11-13T17:17:15.826Z,6.71
2022-11-13T17:22:40.571Z,6.77
2022-11-13T17:28:07.193Z,6.73
2022-11-13T17:33:31.422Z,6.84
2022-11-13T17:38:56.493Z,6.95
2022-11-13T17:44:22.913Z,7.12
2022-11-13T17:49:46.806Z,7.17
2022-11-13T17:55:13.232Z,7.29
2022-11-13T18:00:41.407Z,7.27
2022-11-13T18:06:07.960Z,7.25
2022-11-13T18:11:34.241Z,7.22
2022-11-13T18:17:01.019Z,7.18
2022-11-13T18:22:25.588Z,7.28
2022-11-13T18:27:51.868Z,7.34
2022-11-13T18:33:20.204Z,7.45
2022-11-13T18:38:45.824Z,7.50
2022-11-13T18:44:23.039Z,7.64
2022-11-13T18:49:47.643Z,7.52
2022-11-13T18:55:12.759Z,7.62
2022-11-13T19:00:43.425Z,7.61
2022-11-13T19:06:13.717Z,7.73
2022-11-13T19:11:38.020Z,7.65
2022-11-13T19:17:07.893Z,7.70
2022-11-13T19:22:32.179Z,7.66
2022-11-13T19:27:59.489Z,7.65
2022-11-13T19:33:28.682Z,7.63
2022-11-13T19:38:52.889Z,7.60
2022-11-13T19:44:19.657Z,7.64
2022-11-13T19:49:46.892Z,7.59
2022-11-13T19:55:12.220Z,7.68
2022-11-13T20:00:37.013Z,7.53
2022-11-13T20:06:03.726Z,7.61
2022-11-13T20:11:27.682Z,7.64
2022-11-13T20:16:53.402Z,7.71
2022-11-13T20:22:20.539Z,7.67
2022-11-13T20:27:47.343Z,7.78
2022-11-13T20:33:12.198Z,7.74
2022-11-13T20:38:39.003Z,7.74
2022-11-13T20:44:04.389Z,7.67
2022-11-13T20:49:28.449Z,7.70
2022-11-13T20:54:54.879Z,7.72
2022-11-13T21:00:19.931Z,7.67
2022-11-13T21:05:43.730Z,7.67
2022-11-13T21:11:11.045Z,7.59
2022-11-13T21:16:35.242Z,7.61
2022-11-13T21:21:58.821Z,7.53
2022-11-13T21:27:24.768Z,7.60
2022-11-13T21:32:49.025Z,7.72
2022-11-13T21:38:12.878Z,7.65
2022-11-13T21:43:39.249Z,7.65
2022-11-13T21:49:05.126Z,7.68
2022-11-13T21:54:28.838Z,7.77
2022-11-13T21:59:55.077Z,7.70
2022-11-13T22:05:20.143Z,7.65
2022-11-13T22:10:44.112Z,7.71
2022-11-13T22:16:11.901Z,7.69
2022-11-13T22:21:36.550Z,7.78
2022-11-13T22:26:59.965Z,7.77
2022-11-13T22:32:26.243Z,7.85
2022-11-13T22:37:49.802Z,7.84
2022-11-13T22:43:13.346Z,7.88
2022-11-13T22:48:41.172Z,7.91
2022-11-13T22:54:06.445Z,7.80
2022-11-13T22:59:29.949Z,7.77
2022-11-13T23:04:56.370Z,7.82
2022-11-13T23:10:25.445Z,7.80
2022-11-13T23:15:49.802Z,7.85
2022-11-13T23:21:17.596Z,7.85
2022-11-13T23:26:41.136Z,7.89
2022-11-13T23:32:04.954Z,7.88
2022-11-13T23:37:31.174Z,7.87
2022-11-13T23:42:55.777Z,7.69
2022-11-13T23:48:19.497Z,7.86
2022-11-13T23:53:45.470Z,7.86
2022-11-13T23:59:09.176Z,7.77
